createdAt,value
2022-07-31T00:00:08.232Z,2.00
2022-07-31T00:01:08.203Z,1.90
2022-07-31T00:02:08.207Z,1.90
2022-07-31T00:03:08.217Z,2.50
2022-07-31T00:04:08.194Z,2.00
2022-07-31T00:05:08.166Z,2.10
2022-07-31T00:06:08.613Z,2.10
2022-07-31T00:07:08.132Z,2.30
2022-07-31T00:08:08.135Z,2.10
2022-07-31T00:09:08.136Z,2.10
2022-07-31T00:10:09.120Z,2.10
2022-07-31T00:11:08.095Z,1.80
2022-07-31T00:12:08.079Z,2.00
2022-07-31T00:13:08.059Z,1.90
2022-07-31T00:14:08.115Z,2.10
2022-07-31T00:15:08.052Z,2.00
2022-07-31T00:16:08.037Z,2.00
2022-07-31T00:17:08.037Z,2.30
2022-07-31T00:18:08.007Z,2.10
2022-07-31T00:19:07.999Z,2.00
2022-07-31T00:20:08.038Z,2.10
2022-07-31T00:21:07.968Z,2.20
2022-07-31T00:22:07.963Z,2.20
2022-07-31T00:23:07.957Z,1.80
2022-07-31T00:24:07.941Z,1.80
2022-07-31T00:25:07.930Z,1.90
2022-07-31T00:26:07.969Z,1.80
2022-07-31T00:27:07.910Z,2.20
2022-07-31T00:28:07.889Z,2.00
2022-07-31T00:29:07.877Z,1.80
2022-07-31T00:30:07.877Z,1.90
2022-07-31T00:31:07.864Z,2.00
2022-07-31T00:32:07.890Z,1.80
2022-07-31T00:33:07.833Z,1.90
2022-07-31T00:34:07.829Z,1.70
2022-07-31T00:35:07.801Z,1.90
2022-07-31T00:36:07.807Z,2.00
2022-07-31T00:37:07.791Z,2.10
2022-07-31T00:38:26.236Z,1.80
2022-07-31T00:39:08.760Z,1.80
2022-07-31T00:40:07.757Z,2.20
2022-07-31T00:41:07.734Z,2.00
2022-07-31T00:42:07.742Z,2.10
2022-07-31T00:43:07.723Z,2.60
2022-07-31T00:44:12.182Z,2.10
2022-07-31T00:45:07.700Z,2.10
2022-07-31T00:46:07.684Z,2.20
2022-07-31T00:47:08.668Z,1.80
2022-07-31T00:48:07.657Z,1.90
2022-07-31T00:49:07.718Z,2.00
2022-07-31T00:50:07.633Z,2.00
2022-07-31T00:51:07.650Z,2.10
2022-07-31T00:52:07.646Z,1.90
2022-07-31T00:53:07.597Z,2.10
2022-07-31T00:54:07.591Z,1.90
2022-07-31T00:55:07.627Z,2.40
2022-07-31T00:56:07.577Z,2.10
2022-07-31T00:57:07.674Z,1.90
2022-07-31T00:58:07.546Z,2.10
2022-07-31T00:59:07.527Z,2.30
2022-07-31T01:00:07.519Z,1.90
2022-07-31T01:01:07.599Z,2.00
2022-07-31T01:02:07.503Z,2.10
2022-07-31T01:03:07.480Z,2.00
2022-07-31T01:04:07.468Z,1.80
2022-07-31T01:05:08.459Z,2.40
2022-07-31T01:06:07.459Z,2.10
2022-07-31T01:07:07.472Z,2.40
2022-07-31T01:08:07.429Z,2.30
2022-07-31T01:09:07.436Z,2.10
2022-07-31T01:10:07.403Z,2.00
2022-07-31T01:11:07.391Z,1.90
2022-07-31T01:12:07.375Z,2.10
2022-07-31T01:13:07.407Z,2.10
2022-07-31T01:14:07.362Z,2.10
2022-07-31T01:15:07.365Z,2.00
2022-07-31T01:16:07.324Z,2.20
2022-07-31T01:17:07.414Z,2.00
2022-07-31T01:18:07.363Z,2.00
2022-07-31T01:19:07.303Z,2.50
2022-07-31T01:20:07.282Z,2.10
2022-07-31T01:21:07.286Z,2.10
2022-07-31T01:22:07.254Z,2.30
2022-07-31T01:23:08.272Z,2.20
2022-07-31T01:24:07.231Z,2.10
2022-07-31T01:25:07.244Z,2.50
2022-07-31T01:26:07.215Z,2.20
2022-07-31T01:27:07.195Z,2.20
2022-07-31T01:28:07.194Z,2.20
2022-07-31T01:29:07.196Z,2.30
2022-07-31T01:30:07.168Z,2.30
2022-07-31T01:31:25.481Z,2.10
2022-07-31T01:32:08.184Z,2.30
2022-07-31T01:33:07.137Z,1.90
2022-07-31T01:34:07.122Z,1.70
2022-07-31T01:35:07.144Z,2.30
2022-07-31T01:36:07.101Z,2.50
2022-07-31T01:37:07.181Z,1.90
2022-07-31T01:38:07.077Z,1.90
2022-07-31T01:39:07.059Z,2.10
2022-07-31T01:40:07.066Z,2.30
2022-07-31T01:41:07.058Z,2.50
2022-07-31T01:42:07.036Z,2.60
2022-07-31T01:43:07.026Z,2.30
2022-07-31T01:44:07.027Z,2.20
2022-07-31T01:45:07.009Z,2.30
2022-07-31T01:46:06.979Z,2.20
2022-07-31T01:47:07.001Z,2.10
2022-07-31T01:48:06.988Z,1.90
2022-07-31T01:49:06.965Z,2.40
2022-07-31T01:50:06.941Z,2.10
2022-07-31T01:51:06.922Z,2.20
2022-07-31T01:52:07.144Z,1.80
2022-07-31T01:53:06.924Z,2.20
2022-07-31T01:54:06.891Z,2.30
2022-07-31T01:55:06.874Z,2.10
2022-07-31T01:56:06.863Z,1.90
2022-07-31T01:57:06.854Z,2.20
2022-07-31T01:58:06.842Z,1.90
2022-07-31T01:59:20.537Z,2.10
2022-07-31T02:00:33.320Z,1.90
2022-07-31T02:01:07.861Z,1.90
2022-07-31T02:02:06.956Z,2.10
2022-07-31T02:03:09.505Z,2.20
2022-07-31T02:04:06.781Z,1.90
2022-07-31T02:05:06.756Z,2.30
2022-07-31T02:06:06.743Z,2.10
2022-07-31T02:07:06.751Z,2.20
2022-07-31T02:08:06.725Z,2.10
2022-07-31T02:09:06.757Z,2.60
2022-07-31T02:10:06.710Z,2.10
2022-07-31T02:11:06.676Z,1.90
2022-07-31T02:12:09.633Z,2.30
2022-07-31T02:13:06.658Z,2.20
2022-07-31T02:14:06.680Z,2.20
2022-07-31T02:15:06.672Z,2.30
2022-07-31T02:16:06.629Z,1.90
2022-07-31T02:17:06.622Z,2.00
2022-07-31T02:18:06.615Z,2.30
2022-07-31T02:19:06.607Z,2.20
2022-07-31T02:20:06.624Z,2.00
2022-07-31T02:21:06.571Z,2.20
2022-07-31T02:22:06.730Z,2.10
2022-07-31T02:23:06.548Z,2.10
2022-07-31T02:24:06.540Z,2.50
2022-07-31T02:25:06.518Z,2.10
2022-07-31T02:26:06.542Z,2.30
2022-07-31T02:27:06.489Z,1.90
2022-07-31T02:28:07.497Z,2.00
2022-07-31T02:29:06.471Z,2.20
2022-07-31T02:30:06.473Z,2.00
2022-07-31T02:31:06.450Z,2.20
2022-07-31T02:32:06.468Z,2.10
2022-07-31T02:33:06.424Z,2.20
2022-07-31T02:34:06.412Z,2.10
2022-07-31T02:35:06.403Z,2.20
2022-07-31T02:36:06.395Z,2.20
2022-07-31T02:37:06.387Z,2.80
2022-07-31T02:38:06.383Z,2.20
2022-07-31T02:39:07.360Z,2.10
2022-07-31T02:40:06.352Z,2.00
2022-07-31T02:41:06.336Z,2.10
2022-07-31T02:42:06.734Z,2.50
2022-07-31T02:43:06.315Z,2.00
2022-07-31T02:44:06.298Z,2.30
2022-07-31T02:45:06.293Z,2.00
2022-07-31T02:46:06.273Z,2.30
2022-07-31T02:47:06.273Z,2.40
2022-07-31T02:48:06.283Z,1.80
2022-07-31T02:49:06.303Z,2.20
2022-07-31T02:50:06.226Z,1.90
2022-07-31T02:51:06.228Z,2.40
2022-07-31T02:52:06.730Z,2.50
2022-07-31T02:53:06.185Z,2.00
2022-07-31T02:54:06.207Z,2.40
2022-07-31T02:55:06.210Z,2.30
2022-07-31T02:56:06.166Z,2.20
2022-07-31T02:57:06.148Z,2.10
2022-07-31T02:58:06.136Z,2.10
2022-07-31T02:59:06.148Z,2.10
2022-07-31T03:00:06.118Z,2.00
2022-07-31T03:01:06.178Z,1.90
2022-07-31T03:02:06.498Z,2.20
2022-07-31T03:03:06.084Z,2.20
2022-07-31T03:04:06.070Z,2.20
2022-07-31T03:05:06.077Z,2.10
2022-07-31T03:06:06.060Z,2.40
2022-07-31T03:07:06.031Z,2.10
2022-07-31T03:08:06.022Z,2.40
2022-07-31T03:09:06.039Z,2.50
2022-07-31T03:10:06.003Z,2.20
2022-07-31T03:11:06.034Z,2.20
2022-07-31T03:12:06.125Z,1.90
2022-07-31T03:13:05.954Z,2.10
2022-07-31T03:14:05.961Z,2.20
2022-07-31T03:15:05.932Z,2.30
2022-07-31T03:16:05.951Z,2.50
2022-07-31T03:17:05.944Z,2.40
2022-07-31T03:18:11.137Z,2.50
2022-07-31T03:19:06.891Z,2.00
2022-07-31T03:20:05.881Z,2.50
2022-07-31T03:21:05.863Z,2.40
2022-07-31T03:22:06.383Z,2.50
2022-07-31T03:23:05.845Z,2.30
2022-07-31T03:24:05.851Z,2.20
2022-07-31T03:25:05.834Z,2.50
2022-07-31T03:26:05.804Z,2.20
2022-07-31T03:27:05.796Z,2.20
2022-07-31T03:28:05.808Z,2.40
2022-07-31T03:29:05.774Z,2.40
2022-07-31T03:30:06.755Z,2.00
2022-07-31T03:31:05.749Z,2.40
2022-07-31T03:32:06.220Z,2.80
2022-07-31T03:33:05.824Z,2.50
2022-07-31T03:34:05.716Z,2.30
2022-07-31T03:35:05.697Z,2.40
2022-07-31T03:36:05.698Z,2.60
2022-07-31T03:37:05.678Z,2.10
2022-07-31T03:38:32.875Z,2.40
2022-07-31T03:39:06.677Z,2.10
2022-07-31T03:40:05.652Z,2.50
2022-07-31T03:41:05.636Z,2.30
2022-07-31T03:42:05.989Z,2.40
2022-07-31T03:43:06.606Z,2.20
2022-07-31T03:44:05.625Z,2.40
2022-07-31T03:45:05.609Z,2.40
2022-07-31T03:46:05.579Z,2.60
2022-07-31T03:47:05.558Z,2.30
2022-07-31T03:48:05.548Z,2.70
2022-07-31T03:49:05.634Z,2.70
2022-07-31T03:50:05.523Z,2.40
2022-07-31T03:51:05.517Z,2.40
2022-07-31T03:52:08.586Z,2.40
2022-07-31T03:53:06.500Z,2.10
2022-07-31T03:54:05.490Z,2.80
2022-07-31T03:55:05.499Z,2.20
2022-07-31T03:56:05.451Z,2.50
2022-07-31T03:57:05.445Z,2.70
2022-07-31T03:58:05.435Z,2.60
2022-07-31T03:59:05.432Z,2.40
2022-07-31T04:00:05.460Z,2.50
2022-07-31T04:01:09.735Z,2.30
2022-07-31T04:02:10.553Z,2.80
2022-07-31T04:03:06.372Z,2.50
2022-07-31T04:04:05.398Z,2.40
2022-07-31T04:05:09.606Z,2.60
2022-07-31T04:06:05.373Z,2.30
2022-07-31T04:07:05.345Z,2.50
2022-07-31T04:08:05.334Z,2.50
2022-07-31T04:09:13.689Z,2.70
2022-07-31T04:10:06.314Z,2.60
2022-07-31T04:11:05.306Z,2.20
2022-07-31T04:12:05.613Z,2.30
2022-07-31T04:13:05.274Z,2.70
2022-07-31T04:14:05.249Z,2.30
2022-07-31T04:15:05.236Z,2.60
2022-07-31T04:16:05.339Z,2.30
2022-07-31T04:17:05.216Z,2.80
2022-07-31T04:18:05.216Z,2.50
2022-07-31T04:19:05.188Z,2.80
2022-07-31T04:20:05.795Z,2.40
2022-07-31T04:21:05.184Z,2.80
2022-07-31T04:22:05.550Z,2.50
2022-07-31T04:23:07.184Z,2.50
2022-07-31T04:24:05.128Z,2.30
2022-07-31T04:25:05.128Z,2.20
2022-07-31T04:26:05.107Z,2.40
2022-07-31T04:27:09.375Z,2.40
2022-07-31T04:28:06.099Z,2.60
2022-07-31T04:29:05.077Z,2.30
2022-07-31T04:30:05.081Z,2.60
2022-07-31T04:31:05.049Z,2.30
2022-07-31T04:32:05.223Z,2.40
2022-07-31T04:33:05.052Z,2.50
2022-07-31T04:34:05.021Z,2.30
2022-07-31T04:35:05.000Z,2.20
2022-07-31T04:36:04.995Z,2.40
2022-07-31T04:37:04.983Z,2.80
2022-07-31T04:38:04.981Z,2.50
2022-07-31T04:39:04.962Z,2.20
2022-07-31T04:40:04.952Z,2.60
2022-07-31T04:41:04.941Z,2.20
2022-07-31T04:42:06.177Z,2.30
2022-07-31T04:43:04.948Z,2.60
2022-07-31T04:44:04.901Z,2.10
2022-07-31T04:45:04.903Z,2.40
2022-07-31T04:46:04.876Z,2.50
2022-07-31T04:47:05.882Z,2.50
2022-07-31T04:48:04.865Z,2.60
2022-07-31T04:49:04.980Z,2.50
2022-07-31T04:50:04.824Z,2.40
2022-07-31T04:51:04.830Z,2.30
2022-07-31T04:52:05.162Z,2.40
2022-07-31T04:53:04.795Z,2.40
2022-07-31T04:54:04.805Z,2.50
2022-07-31T04:55:04.787Z,2.60
2022-07-31T04:56:04.754Z,2.80
2022-07-31T04:57:04.755Z,2.60
2022-07-31T04:58:04.745Z,2.50
2022-07-31T04:59:04.735Z,2.20
2022-07-31T05:00:04.813Z,2.30
2022-07-31T05:01:04.707Z,2.70
2022-07-31T05:02:05.022Z,2.30
2022-07-31T05:03:04.681Z,2.90
2022-07-31T05:04:04.669Z,2.60
2022-07-31T05:05:04.688Z,2.70
2022-07-31T05:06:04.658Z,2.20
2022-07-31T05:07:05.640Z,2.50
2022-07-31T05:08:04.622Z,2.50
2022-07-31T05:09:08.562Z,2.20
2022-07-31T05:10:05.628Z,2.30
2022-07-31T05:11:04.608Z,2.10
2022-07-31T05:12:04.752Z,2.20
2022-07-31T05:13:04.560Z,2.40
2022-07-31T05:14:04.552Z,1.90
2022-07-31T05:15:04.541Z,2.20
2022-07-31T05:16:05.273Z,2.30
2022-07-31T05:17:04.511Z,1.90
2022-07-31T05:18:04.509Z,2.20
2022-07-31T05:19:04.499Z,1.70
2022-07-31T05:20:04.482Z,2.00
2022-07-31T05:21:04.461Z,1.90
2022-07-31T05:22:04.704Z,2.00
2022-07-31T05:23:06.532Z,2.10
2022-07-31T05:24:04.441Z,2.30
2022-07-31T05:25:04.413Z,2.30
2022-07-31T05:26:04.424Z,1.80
2022-07-31T05:27:04.393Z,2.20
2022-07-31T05:28:04.423Z,2.20
2022-07-31T05:29:05.414Z,2.40
2022-07-31T05:30:04.390Z,2.30
2022-07-31T05:31:04.394Z,2.30
2022-07-31T05:32:04.353Z,2.10
2022-07-31T05:33:04.325Z,2.20
2022-07-31T05:34:04.355Z,2.00
2022-07-31T05:35:04.304Z,2.10
2022-07-31T05:36:04.294Z,2.10
2022-07-31T05:37:04.275Z,2.20
2022-07-31T05:38:04.284Z,2.30
2022-07-31T05:39:04.277Z,2.20
2022-07-31T05:40:04.290Z,2.40
2022-07-31T05:41:04.241Z,2.10
2022-07-31T05:42:04.470Z,1.90
2022-07-31T05:43:04.206Z,2.30
2022-07-31T05:44:04.210Z,2.10
2022-07-31T05:45:04.226Z,2.10
2022-07-31T05:46:04.178Z,2.20
2022-07-31T05:47:05.203Z,2.30
2022-07-31T05:48:04.166Z,2.10
2022-07-31T05:49:04.178Z,2.30
2022-07-31T05:50:04.146Z,2.10
2022-07-31T05:51:05.793Z,2.00
2022-07-31T05:52:04.452Z,1.80
2022-07-31T05:53:04.107Z,2.00
2022-07-31T05:54:04.087Z,2.20
2022-07-31T05:55:04.073Z,1.90
2022-07-31T05:56:04.058Z,2.30
2022-07-31T05:57:04.129Z,1.90
2022-07-31T05:58:04.043Z,1.90
2022-07-31T05:59:04.023Z,2.00
2022-07-31T06:00:04.375Z,2.10
2022-07-31T06:01:04.063Z,2.40
2022-07-31T06:02:04.232Z,2.00
2022-07-31T06:03:04.025Z,2.20
2022-07-31T06:04:03.969Z,2.10
2022-07-31T06:05:03.960Z,2.10
2022-07-31T06:06:03.945Z,1.80
2022-07-31T06:07:03.931Z,2.00
2022-07-31T06:08:03.912Z,2.20
2022-07-31T06:09:12.650Z,2.20
2022-07-31T06:10:03.890Z,2.00
2022-07-31T06:11:03.876Z,2.30
2022-07-31T06:12:04.195Z,2.10
2022-07-31T06:13:03.858Z,2.00
2022-07-31T06:14:03.847Z,2.40
2022-07-31T06:15:03.869Z,1.90
2022-07-31T06:16:03.830Z,2.20
2022-07-31T06:17:03.818Z,2.20
2022-07-31T06:18:03.801Z,2.40
2022-07-31T06:19:03.780Z,2.40
2022-07-31T06:20:03.772Z,2.30
2022-07-31T06:21:44.978Z,2.00
2022-07-31T06:22:44.946Z,2.10
2022-07-31T06:23:44.926Z,2.10
2022-07-31T06:24:44.968Z,2.30
2022-07-31T06:25:44.937Z,2.30
2022-07-31T06:26:44.915Z,2.00
2022-07-31T06:27:48.757Z,2.00
2022-07-31T06:28:48.836Z,2.00
2022-07-31T06:29:44.880Z,2.40
2022-07-31T06:30:44.889Z,2.40
2022-07-31T06:31:44.875Z,2.60
2022-07-31T06:32:44.891Z,2.10
2022-07-31T06:33:48.172Z,2.20
2022-07-31T06:34:44.838Z,2.20
2022-07-31T06:35:44.810Z,2.40
2022-07-31T06:36:44.830Z,2.20
2022-07-31T06:37:44.799Z,2.60
2022-07-31T06:38:44.779Z,2.30
2022-07-31T06:39:54.244Z,2.20
2022-07-31T06:40:45.760Z,2.40
2022-07-31T06:41:44.742Z,2.50
2022-07-31T06:42:44.768Z,2.10
2022-07-31T06:43:44.728Z,2.40
2022-07-31T06:44:46.024Z,2.40
2022-07-31T06:45:51.898Z,2.00
2022-07-31T06:46:49.247Z,2.30
2022-07-31T06:47:44.680Z,2.40
2022-07-31T06:48:44.702Z,2.40
2022-07-31T06:49:44.705Z,2.30
2022-07-31T06:50:44.646Z,2.50
2022-07-31T06:51:44.661Z,2.00
2022-07-31T06:52:44.684Z,2.10
2022-07-31T06:53:45.383Z,2.40
2022-07-31T06:54:44.676Z,2.30
2022-07-31T06:55:44.845Z,2.40
2022-07-31T06:56:44.621Z,2.60
2022-07-31T06:57:44.565Z,2.60
2022-07-31T06:58:44.596Z,2.40
2022-07-31T06:59:44.570Z,2.70
2022-07-31T07:00:44.577Z,2.60
2022-07-31T07:01:44.635Z,2.40
2022-07-31T07:02:44.536Z,2.40
2022-07-31T07:03:44.499Z,2.70
2022-07-31T07:04:57.403Z,3.00
2022-07-31T07:05:45.605Z,2.60
2022-07-31T07:06:44.467Z,3.10
2022-07-31T07:07:44.456Z,2.50
2022-07-31T07:08:44.448Z,2.90
2022-07-31T07:09:44.438Z,2.90
2022-07-31T07:10:44.439Z,2.70
2022-07-31T07:11:44.419Z,2.70
2022-07-31T07:12:44.409Z,2.80
2022-07-31T07:13:45.052Z,2.50
2022-07-31T07:14:44.378Z,2.90
2022-07-31T07:15:44.418Z,2.70
2022-07-31T07:16:44.351Z,2.60
2022-07-31T07:17:44.350Z,2.60
2022-07-31T07:18:44.329Z,3.00
2022-07-31T07:19:44.321Z,2.70
2022-07-31T07:20:45.550Z,2.60
2022-07-31T07:21:44.301Z,2.70
2022-07-31T07:22:44.298Z,2.70
2022-07-31T07:23:44.276Z,2.60
2022-07-31T07:24:44.252Z,2.30
2022-07-31T07:25:44.256Z,2.90
2022-07-31T07:26:44.262Z,3.00
2022-07-31T07:27:44.231Z,2.80
2022-07-31T07:28:44.213Z,3.00
2022-07-31T07:29:44.228Z,2.90
2022-07-31T07:30:44.184Z,2.80
2022-07-31T07:31:44.173Z,2.30
2022-07-31T07:32:44.203Z,2.70
2022-07-31T07:33:44.154Z,2.40
2022-07-31T07:34:44.168Z,2.50
2022-07-31T07:35:44.128Z,2.60
2022-07-31T07:36:44.124Z,2.40
2022-07-31T07:37:44.126Z,2.50
2022-07-31T07:38:44.109Z,2.70
2022-07-31T07:39:44.100Z,2.70
2022-07-31T07:40:44.085Z,2.70
2022-07-31T07:41:44.077Z,2.80
2022-07-31T07:42:44.059Z,3.10
2022-07-31T07:43:44.066Z,2.80
2022-07-31T07:44:44.047Z,3.10
2022-07-31T07:45:44.015Z,3.10
2022-07-31T07:46:44.009Z,3.00
2022-07-31T07:48:05.794Z,2.80
2022-07-31T07:48:45.035Z,2.90
2022-07-31T07:49:43.996Z,2.80
2022-07-31T07:50:43.967Z,2.60
2022-07-31T07:51:59.303Z,2.70
2022-07-31T07:52:44.950Z,2.90
2022-07-31T07:53:43.947Z,2.80
2022-07-31T07:54:43.972Z,2.60
2022-07-31T07:55:43.912Z,2.90
2022-07-31T07:56:43.891Z,3.00
2022-07-31T07:57:43.883Z,2.80
2022-07-31T07:58:43.891Z,2.70
2022-07-31T07:59:43.878Z,2.80
2022-07-31T08:00:43.934Z,2.50
2022-07-31T08:01:43.832Z,2.90
2022-07-31T08:02:43.822Z,2.90
2022-07-31T08:03:48.307Z,3.40
2022-07-31T08:04:47.537Z,3.30
2022-07-31T08:05:43.801Z,3.20
2022-07-31T08:06:44.313Z,2.80
2022-07-31T08:07:43.765Z,3.20
2022-07-31T08:08:43.758Z,3.00
2022-07-31T08:09:43.764Z,3.30
2022-07-31T08:10:43.760Z,3.30
2022-07-31T08:11:43.736Z,3.20
2022-07-31T08:12:43.735Z,3.20
2022-07-31T08:13:47.864Z,3.20
2022-07-31T08:14:44.718Z,3.50
2022-07-31T08:15:43.702Z,3.20
2022-07-31T08:16:43.666Z,3.30
2022-07-31T08:17:43.668Z,2.90
2022-07-31T08:18:43.693Z,2.90
2022-07-31T08:19:46.185Z,3.40
2022-07-31T08:20:44.617Z,3.20
2022-07-31T08:21:43.625Z,3.00
2022-07-31T08:22:43.609Z,3.00
2022-07-31T08:23:43.580Z,3.00
2022-07-31T08:24:43.610Z,3.20
2022-07-31T08:25:43.568Z,2.90
2022-07-31T08:26:43.876Z,3.10
2022-07-31T08:27:43.542Z,3.00
2022-07-31T08:28:49.938Z,2.60
2022-07-31T08:29:44.550Z,2.70
2022-07-31T08:30:43.548Z,2.80
2022-07-31T08:31:49.604Z,2.60
2022-07-31T08:32:44.493Z,2.30
2022-07-31T08:33:43.498Z,2.70
2022-07-31T08:34:43.481Z,2.70
2022-07-31T08:35:44.833Z,2.80
2022-07-31T08:36:44.462Z,3.20
2022-07-31T08:37:50.796Z,2.90
2022-07-31T08:38:44.453Z,2.70
2022-07-31T08:39:43.436Z,2.90
2022-07-31T08:40:43.790Z,2.70
2022-07-31T08:41:43.427Z,2.70
2022-07-31T08:42:43.384Z,2.70
2022-07-31T08:44:01.862Z,2.60
2022-07-31T08:44:44.393Z,2.50
2022-07-31T08:45:43.346Z,2.80
2022-07-31T08:46:43.335Z,2.60
2022-07-31T08:47:43.359Z,2.80
2022-07-31T08:48:43.316Z,2.50
2022-07-31T08:49:43.318Z,2.70
2022-07-31T08:50:43.286Z,2.60
2022-07-31T08:51:50.499Z,2.60
2022-07-31T08:52:44.305Z,2.50
2022-07-31T08:53:43.259Z,2.70
2022-07-31T08:54:43.261Z,2.50
2022-07-31T08:55:56.443Z,2.60
2022-07-31T08:56:44.248Z,2.80
2022-07-31T08:57:43.210Z,2.70
2022-07-31T08:58:43.259Z,2.60
2022-07-31T08:59:43.193Z,2.40
2022-07-31T09:00:43.317Z,2.40
2022-07-31T09:01:43.230Z,2.20
2022-07-31T09:02:43.167Z,2.50
2022-07-31T09:03:43.151Z,2.40
2022-07-31T09:04:43.203Z,2.20
2022-07-31T09:05:43.123Z,2.50
2022-07-31T09:06:43.130Z,2.60
2022-07-31T09:07:43.101Z,2.50
2022-07-31T09:08:43.104Z,2.60
2022-07-31T09:09:51.156Z,2.30
2022-07-31T09:10:47.778Z,2.50
2022-07-31T09:11:44.062Z,2.40
2022-07-31T09:12:43.053Z,2.40
2022-07-31T09:13:43.052Z,2.80
2022-07-31T09:14:44.153Z,2.60
2022-07-31T09:15:43.036Z,2.90
2022-07-31T09:16:43.025Z,2.20
2022-07-31T09:17:50.679Z,2.10
2022-07-31T09:18:43.996Z,2.20
2022-07-31T09:19:51.823Z,2.40
2022-07-31T09:20:43.986Z,2.40
2022-07-31T09:21:42.959Z,2.50
2022-07-31T09:22:42.948Z,2.20
2022-07-31T09:23:42.927Z,2.60
2022-07-31T09:24:42.910Z,1.70
2022-07-31T09:25:42.917Z,2.10
2022-07-31T09:26:42.922Z,2.50
2022-07-31T09:27:42.889Z,2.10
2022-07-31T09:28:42.889Z,2.40
2022-07-31T09:29:42.879Z,2.30
2022-07-31T09:30:56.109Z,2.40
2022-07-31T09:31:43.908Z,2.20
2022-07-31T09:32:42.840Z,2.50
2022-07-31T09:33:45.648Z,2.30
2022-07-31T09:34:42.810Z,2.20
2022-07-31T09:35:42.794Z,2.30
2022-07-31T09:36:42.791Z,2.20
2022-07-31T09:37:42.803Z,2.20
2022-07-31T09:38:42.760Z,1.80
2022-07-31T09:39:52.059Z,1.90
2022-07-31T09:40:57.334Z,2.10
2022-07-31T09:42:01.244Z,1.80
2022-07-31T09:42:45.596Z,2.00
2022-07-31T09:43:51.562Z,1.90
2022-07-31T09:44:43.713Z,2.00
2022-07-31T09:45:48.042Z,2.00
2022-07-31T09:46:43.671Z,2.40
2022-07-31T09:47:42.725Z,1.90
2022-07-31T09:48:44.137Z,2.10
2022-07-31T09:49:42.644Z,2.00
2022-07-31T09:50:42.627Z,2.10
2022-07-31T09:51:42.608Z,1.90
2022-07-31T09:52:42.627Z,2.20
2022-07-31T09:53:43.658Z,1.60
2022-07-31T09:54:42.601Z,2.20
2022-07-31T09:55:42.577Z,2.10
2022-07-31T09:56:42.556Z,1.90
2022-07-31T09:57:42.558Z,2.00
2022-07-31T09:58:43.537Z,2.40
2022-07-31T09:59:42.568Z,2.20
2022-07-31T10:00:42.570Z,2.20
2022-07-31T10:01:42.500Z,2.10
2022-07-31T10:02:42.519Z,2.10
2022-07-31T10:03:42.479Z,2.10
2022-07-31T10:04:42.506Z,2.30
2022-07-31T10:05:42.497Z,2.30
2022-07-31T10:06:42.452Z,2.30
2022-07-31T10:07:42.451Z,2.30
2022-07-31T10:08:42.440Z,2.20
2022-07-31T10:09:42.419Z,2.00
2022-07-31T10:10:42.423Z,2.20
2022-07-31T10:11:42.383Z,2.10
2022-07-31T10:12:42.393Z,2.60
2022-07-31T10:13:42.533Z,2.20
2022-07-31T10:14:42.350Z,2.30
2022-07-31T10:15:42.529Z,2.20
2022-07-31T10:16:42.334Z,2.40
2022-07-31T10:17:42.314Z,2.20
2022-07-31T10:18:44.504Z,2.20
2022-07-31T10:19:42.304Z,2.10
2022-07-31T10:20:42.285Z,2.20
2022-07-31T10:21:42.315Z,2.20
2022-07-31T10:22:42.298Z,2.30
2022-07-31T10:23:42.257Z,2.40
2022-07-31T10:24:42.245Z,2.20
2022-07-31T10:25:42.252Z,2.20
2022-07-31T10:27:00.225Z,2.60
2022-07-31T10:27:44.075Z,2.30
2022-07-31T10:28:42.234Z,2.20
2022-07-31T10:29:42.188Z,2.10
2022-07-31T10:30:42.181Z,1.90
2022-07-31T10:31:42.159Z,2.30
2022-07-31T10:32:42.205Z,2.40
2022-07-31T10:33:44.052Z,2.30
2022-07-31T10:34:42.138Z,2.40
2022-07-31T10:35:42.122Z,2.30
2022-07-31T10:36:42.109Z,2.40
2022-07-31T10:37:42.110Z,2.20
2022-07-31T10:38:42.131Z,2.10
2022-07-31T10:39:42.093Z,2.50
2022-07-31T10:40:43.099Z,2.30
2022-07-31T10:41:42.062Z,2.10
2022-07-31T10:42:42.095Z,2.20
2022-07-31T10:43:42.042Z,2.20
2022-07-31T10:44:42.055Z,2.00
2022-07-31T10:45:42.016Z,2.10
2022-07-31T10:46:42.002Z,1.90
2022-07-31T10:47:48.775Z,2.40
2022-07-31T10:48:42.983Z,2.00
2022-07-31T10:49:42.047Z,2.10
2022-07-31T10:50:41.985Z,2.40
2022-07-31T10:51:41.946Z,1.80
2022-07-31T10:52:41.991Z,1.90
2022-07-31T10:53:50.998Z,2.30
2022-07-31T10:54:42.914Z,2.30
2022-07-31T10:55:41.909Z,2.10
2022-07-31T10:56:41.895Z,2.40
2022-07-31T10:57:56.063Z,2.20
2022-07-31T10:58:42.869Z,2.30
2022-07-31T10:59:44.604Z,2.30
2022-07-31T11:00:41.870Z,1.90
2022-07-31T11:01:41.866Z,2.60
2022-07-31T11:02:42.818Z,2.10
2022-07-31T11:03:41.809Z,1.90
2022-07-31T11:04:41.802Z,2.10
2022-07-31T11:06:01.544Z,2.00
2022-07-31T11:06:42.801Z,2.20
2022-07-31T11:07:41.761Z,1.70
2022-07-31T11:08:41.750Z,1.80
2022-07-31T11:09:51.137Z,2.20
2022-07-31T11:10:42.723Z,1.80
2022-07-31T11:11:41.739Z,1.70
2022-07-31T11:12:41.722Z,1.90
2022-07-31T11:13:41.705Z,1.60
2022-07-31T11:14:41.682Z,1.80
2022-07-31T11:15:41.673Z,2.00
2022-07-31T11:16:41.682Z,1.80
2022-07-31T11:18:21.160Z,1.90
2022-07-31T11:18:42.704Z,1.80
2022-07-31T11:19:41.759Z,1.80
2022-07-31T11:20:41.620Z,1.60
2022-07-31T11:21:41.635Z,1.70
2022-07-31T11:22:41.606Z,1.70
2022-07-31T11:23:41.615Z,1.70
2022-07-31T11:24:42.598Z,1.80
2022-07-31T11:25:41.566Z,1.80
2022-07-31T11:26:42.317Z,1.80
2022-07-31T11:27:41.557Z,2.00
2022-07-31T11:28:41.528Z,1.90
2022-07-31T11:30:00.935Z,1.80
2022-07-31T11:30:42.540Z,1.50
2022-07-31T11:31:41.500Z,1.50
2022-07-31T11:32:41.499Z,1.70
2022-07-31T11:33:42.114Z,1.90
2022-07-31T11:34:41.471Z,1.40
2022-07-31T11:35:41.459Z,1.50
2022-07-31T11:36:41.479Z,1.50
2022-07-31T11:37:56.649Z,2.00
2022-07-31T11:38:42.421Z,1.80
2022-07-31T11:39:41.420Z,1.70
2022-07-31T11:40:42.404Z,1.60
2022-07-31T11:41:44.374Z,1.60
2022-07-31T11:42:41.454Z,1.70
2022-07-31T11:43:41.368Z,1.70
2022-07-31T11:44:41.360Z,1.70
2022-07-31T11:45:41.354Z,1.50
2022-07-31T11:46:41.333Z,1.60
2022-07-31T11:48:11.914Z,1.30
2022-07-31T11:48:45.356Z,1.90
2022-07-31T11:49:48.517Z,1.70
2022-07-31T11:50:42.306Z,1.70
2022-07-31T11:51:41.275Z,1.40
2022-07-31T11:52:41.269Z,1.70
2022-07-31T11:53:41.277Z,1.20
2022-07-31T11:54:41.250Z,1.90
2022-07-31T11:55:41.226Z,1.60
2022-07-31T11:56:41.225Z,1.50
2022-07-31T11:57:51.587Z,1.50
2022-07-31T11:58:42.220Z,1.40
2022-07-31T11:59:45.220Z,1.30
2022-07-31T12:00:42.179Z,1.30
2022-07-31T12:01:41.157Z,1.40
2022-07-31T12:02:41.182Z,1.30
2022-07-31T12:03:41.138Z,1.30
2022-07-31T12:04:41.161Z,1.40
2022-07-31T12:05:41.131Z,1.50
2022-07-31T12:06:41.129Z,1.50
2022-07-31T12:07:41.099Z,1.40
2022-07-31T12:08:41.091Z,1.30
2022-07-31T12:10:02.027Z,1.40
2022-07-31T12:10:42.103Z,1.20
2022-07-31T12:11:41.057Z,1.40
2022-07-31T12:12:41.042Z,1.40
2022-07-31T12:13:41.023Z,1.40
2022-07-31T12:14:41.026Z,1.30
2022-07-31T12:15:41.010Z,1.40
2022-07-31T12:16:41.024Z,1.20
2022-07-31T12:17:40.996Z,1.60
2022-07-31T12:18:40.979Z,1.40
2022-07-31T12:19:40.963Z,1.80
2022-07-31T12:20:40.955Z,1.50
2022-07-31T12:21:40.946Z,1.60
2022-07-31T12:22:40.951Z,1.80
2022-07-31T12:23:41.807Z,1.60
2022-07-31T12:24:40.908Z,1.60
2022-07-31T12:25:40.904Z,1.60
2022-07-31T12:26:40.880Z,1.60
2022-07-31T12:27:41.063Z,1.40
2022-07-31T12:28:40.950Z,1.90
2022-07-31T12:29:40.858Z,1.50
2022-07-31T12:30:40.837Z,1.30
2022-07-31T12:31:40.829Z,1.40
2022-07-31T12:32:40.813Z,1.40
2022-07-31T12:33:40.840Z,1.50
2022-07-31T12:34:40.823Z,1.60
2022-07-31T12:35:56.560Z,1.60
2022-07-31T12:36:41.803Z,1.60
2022-07-31T12:37:40.760Z,1.50
2022-07-31T12:38:45.841Z,1.40
2022-07-31T12:39:47.520Z,1.40
2022-07-31T12:40:41.732Z,1.70
2022-07-31T12:41:40.738Z,1.50
2022-07-31T12:42:42.075Z,1.60
2022-07-31T12:43:52.493Z,1.50
2022-07-31T12:44:41.695Z,1.90
2022-07-31T12:45:41.898Z,1.50
2022-07-31T12:46:40.672Z,1.50
2022-07-31T12:47:40.681Z,1.30
2022-07-31T12:48:44.390Z,1.50
2022-07-31T12:49:41.729Z,1.70
2022-07-31T12:50:40.657Z,3.10
2022-07-31T12:51:46.286Z,2.10
2022-07-31T12:52:41.605Z,1.70
2022-07-31T12:53:40.585Z,1.30
2022-07-31T12:54:40.590Z,1.40
2022-07-31T12:55:40.580Z,1.20
2022-07-31T12:56:40.596Z,1.60
2022-07-31T12:57:41.629Z,1.50
2022-07-31T12:58:41.535Z,1.70
2022-07-31T12:59:40.532Z,1.40
2022-07-31T13:00:40.529Z,1.40
2022-07-31T13:01:43.441Z,1.50
2022-07-31T13:02:40.519Z,1.50
2022-07-31T13:03:46.377Z,1.70
2022-07-31T13:04:41.469Z,1.60
2022-07-31T13:05:40.476Z,1.40
2022-07-31T13:06:40.456Z,1.40
2022-07-31T13:07:40.439Z,1.30
2022-07-31T13:08:40.460Z,1.50
2022-07-31T13:09:40.419Z,1.40
2022-07-31T13:10:40.401Z,1.70
2022-07-31T13:11:45.676Z,1.30
2022-07-31T13:12:41.392Z,1.40
2022-07-31T13:13:40.381Z,1.30
2022-07-31T13:14:40.387Z,1.60
2022-07-31T13:15:40.354Z,1.30
2022-07-31T13:16:40.335Z,1.60
2022-07-31T13:17:43.807Z,1.50
2022-07-31T13:18:41.334Z,1.60